Streeter, Texas
Current Conditions -  °F | °C
As of 8:15 PM on Friday 19 Dec 2014 (Local Time) from KBBD Reporting Station
Overcast Overcast  
Wind Chill: 48°   Ceiling: 1400
Heat Index: 48°   Visibility: 10mi
Dew Point: 43°   Wind: 3mph
Humidity: 82%   Direction: 80°E
Pressure: 30.16"   Gusts: NA
Location:  30.7049°N, 99.2387°W
Report Text: KBBD 200215Z AUTO 08003KT 10SM OVC014 09/06 A3016 RMK
Loading
Personal Weather Stations






























Interactive Weather Map New forecast layout! Learn more

10-Day Weather Forecast

Advertisements
Track Severe Weather on mobile